NCAR-RAP Real-Time Weather Data

Output produced by METARs form (23 February 2017  18:41 UTC)
found at http://weather.rap.ucar.edu/surface/
 
Conditions at: KSDF observed 23 February 2017  17:56 UTC
Temperature: 20.0°C (68°F)
Dewpoint: 13.3°C (56°F) [RH = 65%]
Pressure (altimeter): 29.79 inches Hg (1008.9 mb)
[Sea-level pressure: 1008.6 mb]
Winds: from the S (180 degrees) at 13 MPH (11 knots; 5.7 m/s)
Visibility: 9 miles (14 km)
Ceiling: 6000 feet AGL
Clouds: scattered clouds at 2300 feet AGL
overcast cloud deck at 6000 feet AGL
Present Weather: no significant weather observed at this time
KSDF 231756Z 18011KT 9SM SCT023 OVC060 20/13 A2979 RMK AO2 SLP086 T02000133 10206 20161 58010